sensor_id;sensor_type;location;lat;lon;timestamp;noise_LAeq;noise_LA_min;noise_LA_max;noise_LA01;noise_LA95
63692;Laerm;49838;51.798;10.954;2023-06-10T00:02:14;32.31;27.93;41.11;;
63692;Laerm;49838;51.798;10.954;2023-06-10T00:04:42;35.37;28.39;50.74;;
63692;Laerm;49838;51.798;10.954;2023-06-10T00:07:10;33.96;27.15;49.99;;
63692;Laerm;49838;51.798;10.954;2023-06-10T00:09:38;44.99;29.76;63.10;;
63692;Laerm;49838;51.798;10.954;2023-06-10T00:12:06;34.27;29.13;45.86;;
63692;Laerm;49838;51.798;10.954;2023-06-10T00:14:37;31.75;27.40;50.09;;
63692;Laerm;49838;51.798;10.954;2023-06-10T00:17:05;52.91;28.76;71.78;;
63692;Laerm;49838;51.798;10.954;2023-06-10T00:19:37;37.77;30.68;46.07;;
63692;Laerm;49838;51.798;10.954;2023-06-10T00:22:07;34.95;29.23;46.02;;
63692;Laerm;49838;51.798;10.954;2023-06-10T00:24:35;40.14;31.38;59.25;;
63692;Laerm;49838;51.798;10.954;2023-06-10T00:27:02;41.15;33.05;46.31;;
63692;Laerm;49838;51.798;10.954;2023-06-10T00:29:30;40.13;31.20;50.35;;
63692;Laerm;49838;51.798;10.954;2023-06-10T00:31:57;40.06;28.36;52.92;;
63692;Laerm;49838;51.798;10.954;2023-06-10T00:34:24;36.25;27.76;55.20;;
63692;Laerm;49838;51.798;10.954;2023-06-10T00:36:53;34.03;27.78;44.81;;
63692;Laerm;49838;51.798;10.954;2023-06-10T00:39:20;29.78;27.17;47.46;;
63692;Laerm;49838;51.798;10.954;2023-06-10T00:41:47;33.22;27.09;40.16;;
63692;Laerm;49838;51.798;10.954;2023-06-10T00:44:15;35.32;26.96;48.16;;
63692;Laerm;49838;51.798;10.954;2023-06-10T00:46:43;39.95;30.18;50.33;;
63692;Laerm;49838;51.798;10.954;2023-06-10T00:49:10;39.57;28.26;50.85;;
63692;Laerm;49838;51.798;10.954;2023-06-10T00:51:38;36.53;29.28;46.04;;
63692;Laerm;49838;51.798;10.954;2023-06-10T00:54:07;36.39;29.04;46.86;;
63692;Laerm;49838;51.798;10.954;2023-06-10T00:56:35;34.45;28.00;44.22;;
63692;Laerm;49838;51.798;10.954;2023-06-10T00:59:02;38.24;28.88;47.94;;
63692;Laerm;49838;51.798;10.954;2023-06-10T01:01:29;35.77;28.59;47.13;;
63692;Laerm;49838;51.798;10.954;2023-06-10T01:03:58;34.39;28.59;49.71;;
63692;Laerm;49838;51.798;10.954;2023-06-10T01:06:36;33.07;27.19;50.85;;
63692;Laerm;49838;51.798;10.954;2023-06-10T01:09:17;32.07;28.00;39.79;;
63692;Laerm;49838;51.798;10.954;2023-06-10T01:11:47;33.78;28.13;49.27;;
63692;Laerm;49838;51.798;10.954;2023-06-10T01:14:18;29.65;27.48;41.90;;
63692;Laerm;49838;51.798;10.954;2023-06-10T01:16:46;33.02;27.47;42.47;;
63692;Laerm;49838;51.798;10.954;2023-06-10T01:19:14;32.44;28.60;42.74;;
63692;Laerm;49838;51.798;10.954;2023-06-10T01:21:45;33.87;28.14;44.07;;
63692;Laerm;49838;51.798;10.954;2023-06-10T01:24:14;53.30;28.85;71.18;;
63692;Laerm;49838;51.798;10.954;2023-06-10T01:26:45;34.58;28.00;44.27;;
63692;Laerm;49838;51.798;10.954;2023-06-10T01:29:17;34.33;28.42;45.00;;
63692;Laerm;49838;51.798;10.954;2023-06-10T01:31:49;34.41;28.87;44.87;;
63692;Laerm;49838;51.798;10.954;2023-06-10T01:34:18;32.53;27.42;45.33;;
63692;Laerm;49838;51.798;10.954;2023-06-10T01:36:49;31.09;27.27;43.90;;
63692;Laerm;49838;51.798;10.954;2023-06-10T01:39:18;38.38;28.23;63.49;;
63692;Laerm;49838;51.798;10.954;2023-06-10T01:41:47;36.96;27.87;59.62;;
63692;Laerm;49838;51.798;10.954;2023-06-10T01:44:17;48.44;32.01;64.12;;
63692;Laerm;49838;51.798;10.954;2023-06-10T01:46:45;45.69;31.41;61.57;;
63692;Laerm;49838;51.798;10.954;2023-06-10T01:49:12;47.79;33.19;61.82;;
63692;Laerm;49838;51.798;10.954;2023-06-10T01:51:39;47.96;32.93;63.87;;
63692;Laerm;49838;51.798;10.954;2023-06-10T01:54:08;48.38;30.40;64.59;;
63692;Laerm;49838;51.798;10.954;2023-06-10T01:56:35;50.80;31.47;66.23;;
63692;Laerm;49838;51.798;10.954;2023-06-10T01:59:03;52.31;31.39;66.47;;
63692;Laerm;49838;51.798;10.954;2023-06-10T02:01:30;51.14;33.91;65.84;;
63692;Laerm;49838;51.798;10.954;2023-06-10T02:03:57;51.47;32.67;67.61;;
63692;Laerm;49838;51.798;10.954;2023-06-10T02:06:24;51.83;33.03;68.69;;
63692;Laerm;49838;51.798;10.954;2023-06-10T02:08:51;51.17;32.61;67.60;;
63692;Laerm;49838;51.798;10.954;2023-06-10T02:11:20;52.16;32.05;70.43;;
63692;Laerm;49838;51.798;10.954;2023-06-10T02:13:47;53.66;36.42;70.29;;
63692;Laerm;49838;51.798;10.954;2023-06-10T02:16:15;45.14;32.66;55.32;;
63692;Laerm;49838;51.798;10.954;2023-06-10T02:18:44;45.53;35.06;57.54;;
63692;Laerm;49838;51.798;10.954;2023-06-10T02:21:12;46.45;36.48;65.44;;
63692;Laerm;49838;51.798;10.954;2023-06-10T02:23:39;45.15;35.25;56.49;;
63692;Laerm;49838;51.798;10.954;2023-06-10T02:26:07;45.81;33.69;57.37;;
63692;Laerm;49838;51.798;10.954;2023-06-10T02:28:35;45.82;32.10;60.36;;
63692;Laerm;49838;51.798;10.954;2023-06-10T02:31:03;48.91;34.99;66.12;;
63692;Laerm;49838;51.798;10.954;2023-06-10T02:33:30;49.69;35.20;65.03;;
63692;Laerm;49838;51.798;10.954;2023-06-10T02:35:59;45.32;35.65;56.99;;
63692;Laerm;49838;51.798;10.954;2023-06-10T02:38:26;45.74;35.37;58.13;;
63692;Laerm;49838;51.798;10.954;2023-06-10T02:40:54;46.60;34.18;58.80;;
63692;Laerm;49838;51.798;10.954;2023-06-10T02:43:21;45.96;33.83;57.05;;
63692;Laerm;49838;51.798;10.954;2023-06-10T02:45:50;44.72;34.63;62.64;;
63692;Laerm;49838;51.798;10.954;2023-06-10T02:48:17;45.60;33.84;55.68;;
63692;Laerm;49838;51.798;10.954;2023-06-10T02:50:45;47.12;34.88;58.17;;
63692;Laerm;49838;51.798;10.954;2023-06-10T02:53:15;46.59;35.69;59.89;;
63692;Laerm;49838;51.798;10.954;2023-06-10T02:55:42;44.31;32.92;55.94;;
63692;Laerm;49838;51.798;10.954;2023-06-10T02:58:10;44.51;33.57;56.63;;
63692;Laerm;49838;51.798;10.954;2023-06-10T03:00:37;44.07;35.46;54.53;;
63692;Laerm;49838;51.798;10.954;2023-06-10T03:03:08;44.92;34.87;55.30;;
63692;Laerm;49838;51.798;10.954;2023-06-10T03:05:36;41.02;33.27;52.30;;
63692;Laerm;49838;51.798;10.954;2023-06-10T03:08:04;45.22;35.34;57.20;;
63692;Laerm;49838;51.798;10.954;2023-06-10T03:10:31;45.03;35.23;55.29;;
63692;Laerm;49838;51.798;10.954;2023-06-10T03:12:59;45.60;33.41;59.63;;
63692;Laerm;49838;51.798;10.954;2023-06-10T03:15:26;48.11;33.85;62.56;;
63692;Laerm;49838;51.798;10.954;2023-06-10T03:17:59;50.69;33.20;67.92;;
63692;Laerm;49838;51.798;10.954;2023-06-10T03:20:27;48.54;33.82;64.33;;
63692;Laerm;49838;51.798;10.954;2023-06-10T03:22:56;42.91;33.49;56.09;;
63692;Laerm;49838;51.798;10.954;2023-06-10T03:25:23;42.95;34.19;54.08;;
63692;Laerm;49838;51.798;10.954;2023-06-10T03:27:52;43.43;34.51;52.10;;
63692;Laerm;49838;51.798;10.954;2023-06-10T03:30:19;43.73;33.98;54.88;;
63692;Laerm;49838;51.798;10.954;2023-06-10T03:32:46;44.31;33.07;55.70;;
63692;Laerm;49838;51.798;10.954;2023-06-10T03:35:14;48.18;34.45;60.55;;
63692;Laerm;49838;51.798;10.954;2023-06-10T03:37:43;43.92;34.20;56.31;;
63692;Laerm;49838;51.798;10.954;2023-06-10T03:40:10;42.70;35.87;53.46;;
63692;Laerm;49838;51.798;10.954;2023-06-10T03:42:38;43.19;32.98;54.52;;
63692;Laerm;49838;51.798;10.954;2023-06-10T03:45:11;43.04;31.88;55.89;;
63692;Laerm;49838;51.798;10.954;2023-06-10T03:47:39;43.32;32.30;59.70;;
63692;Laerm;49838;51.798;10.954;2023-06-10T03:50:07;42.73;31.92;55.76;;
63692;Laerm;49838;51.798;10.954;2023-06-10T03:52:35;44.07;32.38;58.57;;
63692;Laerm;49838;51.798;10.954;2023-06-10T03:55:05;48.09;35.07;62.73;;
63692;Laerm;49838;51.798;10.954;2023-06-10T03:57:33;46.90;33.31;64.64;;
63692;Laerm;49838;51.798;10.954;2023-06-10T04:00:00;51.08;34.07;66.22;;
63692;Laerm;49838;51.798;10.954;2023-06-10T04:02:31;44.58;31.87;59.07;;
63692;Laerm;49838;51.798;10.954;2023-06-10T04:04:58;45.00;32.67;60.76;;
63692;Laerm;49838;51.798;10.954;2023-06-10T04:07:26;43.38;31.08;57.42;;
63692;Laerm;49838;51.798;10.954;2023-06-10T04:09:54;42.26;30.56;59.39;;
63692;Laerm;49838;51.798;10.954;2023-06-10T04:12:22;53.31;31.01;71.36;;
63692;Laerm;49838;51.798;10.954;2023-06-10T04:14:50;44.61;32.75;59.41;;
63692;Laerm;49838;51.798;10.954;2023-06-10T04:17:18;41.74;31.58;53.03;;
63692;Laerm;49838;51.798;10.954;2023-06-10T04:19:45;52.59;33.64;70.63;;
63692;Laerm;49838;51.798;10.954;2023-06-10T04:22:12;45.90;34.58;58.09;;
63692;Laerm;49838;51.798;10.954;2023-06-10T04:24:39;45.30;33.47;59.85;;
63692;Laerm;49838;51.798;10.954;2023-06-10T04:27:07;42.13;33.12;53.35;;
63692;Laerm;49838;51.798;10.954;2023-06-10T04:29:36;38.96;31.88;50.57;;
63692;Laerm;49838;51.798;10.954;2023-06-10T04:32:04;42.16;31.84;58.29;;
63692;Laerm;49838;51.798;10.954;2023-06-10T04:34:33;40.90;32.84;53.39;;
63692;Laerm;49838;51.798;10.954;2023-06-10T04:37:00;54.95;34.26;74.60;;
63692;Laerm;49838;51.798;10.954;2023-06-10T04:39:27;39.86;32.21;55.99;;
63692;Laerm;49838;51.798;10.954;2023-06-10T04:41:55;54.82;31.44;72.68;;
63692;Laerm;49838;51.798;10.954;2023-06-10T04:44:22;49.81;31.60;67.37;;
63692;Laerm;49838;51.798;10.954;2023-06-10T04:46:51;46.71;32.07;61.95;;
63692;Laerm;49838;51.798;10.954;2023-06-10T04:49:20;48.73;32.48;63.79;;
63692;Laerm;49838;51.798;10.954;2023-06-10T04:51:48;41.22;31.40;62.07;;
63692;Laerm;49838;51.798;10.954;2023-06-10T04:54:15;55.87;32.28;72.71;;
63692;Laerm;49838;51.798;10.954;2023-06-10T04:56:43;39.21;31.50;52.21;;
63692;Laerm;49838;51.798;10.954;2023-06-10T04:59:10;39.45;33.21;56.64;;
63692;Laerm;49838;51.798;10.954;2023-06-10T05:01:37;55.85;31.99;73.48;;
63692;Laerm;49838;51.798;10.954;2023-06-10T05:04:06;46.38;33.50;63.49;;
63692;Laerm;49838;51.798;10.954;2023-06-10T05:06:33;41.60;31.94;62.83;;
63692;Laerm;49838;51.798;10.954;2023-06-10T05:09:02;55.43;32.28;75.06;;
63692;Laerm;49838;51.798;10.954;2023-06-10T05:11:29;51.01;32.23;66.10;;
63692;Laerm;49838;51.798;10.954;2023-06-10T05:13:57;47.87;32.40;61.24;;
63692;Laerm;49838;51.798;10.954;2023-06-10T05:16:25;52.28;31.47;69.58;;
63692;Laerm;49838;51.798;10.954;2023-06-10T05:18:52;49.91;31.25;69.42;;
63692;Laerm;49838;51.798;10.954;2023-06-10T05:21:24;39.32;32.46;50.59;;
63692;Laerm;49838;51.798;10.954;2023-06-10T05:23:51;51.76;32.50;73.42;;
63692;Laerm;49838;51.798;10.954;2023-06-10T05:26:18;52.51;31.64;74.39;;
63692;Laerm;49838;51.798;10.954;2023-06-10T05:28:46;49.31;32.00;63.88;;
63692;Laerm;49838;51.798;10.954;2023-06-10T05:31:13;50.90;32.82;67.47;;
63692;Laerm;49838;51.798;10.954;2023-06-10T05:33:41;52.07;34.38;67.37;;
63692;Laerm;49838;51.798;10.954;2023-06-10T05:36:08;56.54;34.05;72.59;;
63692;Laerm;49838;51.798;10.954;2023-06-10T05:38:37;44.61;34.21;62.20;;
63692;Laerm;49838;51.798;10.954;2023-06-10T05:41:04;54.71;33.69;71.64;;
63692;Laerm;49838;51.798;10.954;2023-06-10T05:43:31;54.25;34.74;67.61;;
63692;Laerm;49838;51.798;10.954;2023-06-10T05:45:59;43.44;32.95;55.95;;
63692;Laerm;49838;51.798;10.954;2023-06-10T05:48:26;60.94;36.65;76.74;;
63692;Laerm;49838;51.798;10.954;2023-06-10T05:50:53;57.39;33.01;73.37;;
63692;Laerm;49838;51.798;10.954;2023-06-10T05:53:21;58.01;34.61;74.60;;
63692;Laerm;49838;51.798;10.954;2023-06-10T05:55:52;54.36;33.48;69.21;;
63692;Laerm;49838;51.798;10.954;2023-06-10T05:58:23;60.56;34.14;74.33;;
63692;Laerm;49838;51.798;10.954;2023-06-10T06:00:51;55.71;34.72;72.08;;
63692;Laerm;49838;51.798;10.954;2023-06-10T06:03:18;44.94;34.42;59.06;;
63692;Laerm;49838;51.798;10.954;2023-06-10T06:05:45;50.56;34.41;65.30;;
63692;Laerm;49838;51.798;10.954;2023-06-10T06:08:12;52.20;35.19;70.97;;
63692;Laerm;49838;51.798;10.954;2023-06-10T06:10:43;51.87;33.75;67.87;;
63692;Laerm;49838;51.798;10.954;2023-06-10T06:13:12;57.39;35.09;71.36;;
63692;Laerm;49838;51.798;10.954;2023-06-10T06:15:39;52.33;33.73;66.72;;
63692;Laerm;49838;51.798;10.954;2023-06-10T06:18:06;50.11;34.90;69.95;;
63692;Laerm;49838;51.798;10.954;2023-06-10T06:20:33;56.03;35.34;71.10;;
63692;Laerm;49838;51.798;10.954;2023-06-10T06:23:01;52.15;34.92;70.06;;
63692;Laerm;49838;51.798;10.954;2023-06-10T06:25:28;55.05;34.41;71.04;;
63692;Laerm;49838;51.798;10.954;2023-06-10T06:27:55;54.20;34.34;71.31;;
63692;Laerm;49838;51.798;10.954;2023-06-10T06:30:24;55.11;35.26;71.18;;
63692;Laerm;49838;51.798;10.954;2023-06-10T06:32:51;61.97;36.09;80.98;;
63692;Laerm;49838;51.798;10.954;2023-06-10T06:35:19;59.70;36.48;73.72;;
63692;Laerm;49838;51.798;10.954;2023-06-10T06:37:46;52.62;37.35;65.92;;
63692;Laerm;49838;51.798;10.954;2023-06-10T06:40:13;57.37;35.62;73.01;;
63692;Laerm;49838;51.798;10.954;2023-06-10T06:42:40;57.44;35.20;73.67;;
63692;Laerm;49838;51.798;10.954;2023-06-10T06:45:08;58.22;37.18;73.08;;
63692;Laerm;49838;51.798;10.954;2023-06-10T06:47:37;51.40;35.73;65.71;;
63692;Laerm;49838;51.798;10.954;2023-06-10T06:50:05;56.83;37.08;69.64;;
63692;Laerm;49838;51.798;10.954;2023-06-10T06:52:32;58.81;37.13;70.46;;
63692;Laerm;49838;51.798;10.954;2023-06-10T06:55:00;58.95;37.26;74.33;;
63692;Laerm;49838;51.798;10.954;2023-06-10T06:57:27;58.69;36.71;71.62;;
63692;Laerm;49838;51.798;10.954;2023-06-10T06:59:54;61.44;37.83;80.20;;
63692;Laerm;49838;51.798;10.954;2023-06-10T07:02:21;57.99;36.58;75.41;;
63692;Laerm;49838;51.798;10.954;2023-06-10T07:04:50;58.27;36.79;74.19;;
63692;Laerm;49838;51.798;10.954;2023-06-10T07:07:19;57.39;36.79;71.37;;
63692;Laerm;49838;51.798;10.954;2023-06-10T07:09:46;53.58;36.17;67.27;;
63692;Laerm;49838;51.798;10.954;2023-06-10T07:12:14;57.62;39.91;72.01;;
63692;Laerm;49838;51.798;10.954;2023-06-10T07:14:41;59.52;35.89;71.77;;
63692;Laerm;49838;51.798;10.954;2023-06-10T07:17:08;54.31;36.24;70.11;;
63692;Laerm;49838;51.798;10.954;2023-06-10T07:19:36;58.17;38.26;70.34;;
63692;Laerm;49838;51.798;10.954;2023-06-10T07:22:05;58.02;37.80;72.44;;
63692;Laerm;49838;51.798;10.954;2023-06-10T07:24:32;57.49;37.20;78.82;;
63692;Laerm;49838;51.798;10.954;2023-06-10T07:26:59;57.22;38.63;70.76;;
63692;Laerm;49838;51.798;10.954;2023-06-10T07:29:27;57.88;38.52;71.20;;
63692;Laerm;49838;51.798;10.954;2023-06-10T07:31:54;58.01;36.89;74.94;;
63692;Laerm;49838;51.798;10.954;2023-06-10T07:34:21;58.10;38.12;73.87;;
63692;Laerm;49838;51.798;10.954;2023-06-10T07:36:48;57.39;37.39;69.87;;
63692;Laerm;49838;51.798;10.954;2023-06-10T07:39:17;60.29;38.02;77.28;;
63692;Laerm;49838;51.798;10.954;2023-06-10T07:41:44;49.63;40.09;63.83;;
63692;Laerm;49838;51.798;10.954;2023-06-10T07:44:12;55.42;40.22;69.28;;
63692;Laerm;49838;51.798;10.954;2023-06-10T07:46:45;53.70;41.68;71.13;;
63692;Laerm;49838;51.798;10.954;2023-06-10T07:49:12;58.83;38.32;72.55;;
63692;Laerm;49838;51.798;10.954;2023-06-10T07:51:40;59.54;38.83;75.01;;
63692;Laerm;49838;51.798;10.954;2023-06-10T07:54:07;56.31;37.49;73.75;;
63692;Laerm;49838;51.798;10.954;2023-06-10T07:56:36;56.19;38.00;70.31;;
63692;Laerm;49838;51.798;10.954;2023-06-10T07:59:03;59.39;37.12;71.95;;
63692;Laerm;49838;51.798;10.954;2023-06-10T08:01:30;54.04;38.96;67.41;;
63692;Laerm;49838;51.798;10.954;2023-06-10T08:03:59;59.16;38.72;72.94;;
63692;Laerm;49838;51.798;10.954;2023-06-10T08:06:26;56.48;38.93;68.08;;
63692;Laerm;49838;51.798;10.954;2023-06-10T08:08:53;57.38;38.24;70.30;;
63692;Laerm;49838;51.798;10.954;2023-06-10T08:11:20;59.77;41.56;72.53;;
63692;Laerm;49838;51.798;10.954;2023-06-10T08:13:49;60.82;40.05;72.00;;
63692;Laerm;49838;51.798;10.954;2023-06-10T08:16:16;59.85;38.49;71.76;;
63692;Laerm;49838;51.798;10.954;2023-06-10T08:18:43;58.33;43.10;72.32;;
63692;Laerm;49838;51.798;10.954;2023-06-10T08:21:11;57.97;41.35;69.37;;
63692;Laerm;49838;51.798;10.954;2023-06-10T08:23:38;56.27;40.37;72.31;;
63692;Laerm;49838;51.798;10.954;2023-06-10T08:26:06;59.80;42.47;77.91;;
63692;Laerm;49838;51.798;10.954;2023-06-10T08:28:33;58.51;40.02;73.06;;
63692;Laerm;49838;51.798;10.954;2023-06-10T08:31:02;64.13;38.10;78.86;;
63692;Laerm;49838;51.798;10.954;2023-06-10T08:33:30;55.88;38.28;73.37;;
63692;Laerm;49838;51.798;10.954;2023-06-10T08:35:57;58.48;39.17;72.91;;
63692;Laerm;49838;51.798;10.954;2023-06-10T08:38:24;54.85;39.27;69.88;;
63692;Laerm;49838;51.798;10.954;2023-06-10T08:40:55;58.52;39.48;71.27;;
63692;Laerm;49838;51.798;10.954;2023-06-10T08:43:29;59.32;38.38;79.56;;
63692;Laerm;49838;51.798;10.954;2023-06-10T08:46:00;61.92;41.29;85.26;;
63692;Laerm;49838;51.798;10.954;2023-06-10T08:48:30;57.25;42.81;69.09;;
63692;Laerm;49838;51.798;10.954;2023-06-10T08:50:59;59.23;43.67;79.26;;
63692;Laerm;49838;51.798;10.954;2023-06-10T08:53:29;57.39;42.25;77.18;;
63692;Laerm;49838;51.798;10.954;2023-06-10T08:56:00;59.03;39.48;74.75;;
63692;Laerm;49838;51.798;10.954;2023-06-10T08:58:31;56.32;39.43;72.69;;
63692;Laerm;49838;51.798;10.954;2023-06-10T09:01:01;54.05;38.29;71.62;;
63692;Laerm;49838;51.798;10.954;2023-06-10T09:03:31;54.79;40.36;80.37;;
63692;Laerm;49838;51.798;10.954;2023-06-10T09:05:59;58.21;40.79;74.29;;
63692;Laerm;49838;51.798;10.954;2023-06-10T09:08:27;61.42;39.09;81.21;;
63692;Laerm;49838;51.798;10.954;2023-06-10T09:10:55;60.29;38.76;73.86;;
63692;Laerm;49838;51.798;10.954;2023-06-10T09:13:22;58.36;39.55;72.57;;
63692;Laerm;49838;51.798;10.954;2023-06-10T09:15:50;59.36;39.11;75.37;;
63692;Laerm;49838;51.798;10.954;2023-06-10T09:18:17;53.34;37.91;68.96;;
63692;Laerm;49838;51.798;10.954;2023-06-10T09:20:46;57.92;38.32;71.72;;
63692;Laerm;49838;51.798;10.954;2023-06-10T09:23:15;57.40;38.36;73.96;;
63692;Laerm;49838;51.798;10.954;2023-06-10T09:25:42;58.53;38.67;74.48;;
63692;Laerm;49838;51.798;10.954;2023-06-10T09:28:13;58.24;40.30;75.01;;
63692;Laerm;49838;51.798;10.954;2023-06-10T09:30:41;58.40;43.23;76.57;;
63692;Laerm;49838;51.798;10.954;2023-06-10T09:33:10;60.46;42.70;76.20;;
63692;Laerm;49838;51.798;10.954;2023-06-10T09:35:46;62.72;43.21;80.33;;
63692;Laerm;49838;51.798;10.954;2023-06-10T09:38:15;57.32;42.74;69.91;;
63692;Laerm;49838;51.798;10.954;2023-06-10T09:40:50;60.05;39.93;74.10;;
63692;Laerm;49838;51.798;10.954;2023-06-10T09:43:18;57.17;37.10;74.13;;
63692;Laerm;49838;51.798;10.954;2023-06-10T09:45:47;59.84;37.89;76.93;;
63692;Laerm;49838;51.798;10.954;2023-06-10T09:48:15;58.02;39.70;74.28;;
63692;Laerm;49838;51.798;10.954;2023-06-10T09:50:43;58.66;37.33;72.33;;
63692;Laerm;49838;51.798;10.954;2023-06-10T09:53:12;56.77;38.27;70.48;;
63692;Laerm;49838;51.798;10.954;2023-06-10T09:55:41;59.30;35.92;74.47;;
63692;Laerm;49838;51.798;10.954;2023-06-10T09:58:08;62.01;40.90;75.89;;
63692;Laerm;49838;51.798;10.954;2023-06-10T10:00:36;59.03;39.69;72.71;;
63692;Laerm;49838;51.798;10.954;2023-06-10T10:03:03;60.02;43.53;73.95;;
63692;Laerm;49838;51.798;10.954;2023-06-10T10:05:32;57.02;39.42;72.69;;
63692;Laerm;49838;51.798;10.954;2023-06-10T10:08:00;59.54;39.94;71.98;;
63692;Laerm;49838;51.798;10.954;2023-06-10T10:10:28;60.22;37.74;78.95;;
63692;Laerm;49838;51.798;10.954;2023-06-10T10:12:56;54.29;36.17;77.58;;
63692;Laerm;49838;51.798;10.954;2023-06-10T10:15:29;54.70;35.96;70.08;;
63692;Laerm;49838;51.798;10.954;2023-06-10T10:18:06;54.03;38.38;69.19;;
63692;Laerm;49838;51.798;10.954;2023-06-10T10:20:41;54.79;38.53;66.61;;
63692;Laerm;49838;51.798;10.954;2023-06-10T10:23:14;55.96;36.48;70.18;;
63692;Laerm;49838;51.798;10.954;2023-06-10T10:25:51;55.33;36.10;75.29;;
63692;Laerm;49838;51.798;10.954;2023-06-10T10:28:24;55.38;38.61;77.56;;
63692;Laerm;49838;51.798;10.954;2023-06-10T10:30:54;59.10;35.75;76.46;;
63692;Laerm;49838;51.798;10.954;2023-06-10T10:33:31;54.17;35.58;73.44;;
63692;Laerm;49838;51.798;10.954;2023-06-10T10:36:00;56.58;38.07;70.07;;
63692;Laerm;49838;51.798;10.954;2023-06-10T10:38:28;51.55;36.35;68.74;;
63692;Laerm;49838;51.798;10.954;2023-06-10T10:40:59;55.07;36.02;69.19;;
63692;Laerm;49838;51.798;10.954;2023-06-10T10:43:27;53.48;37.34;72.55;;
63692;Laerm;49838;51.798;10.954;2023-06-10T10:45:59;53.27;37.20;67.92;;
63692;Laerm;49838;51.798;10.954;2023-06-10T10:48:33;58.12;37.51;72.81;;
63692;Laerm;49838;51.798;10.954;2023-06-10T10:51:01;50.58;36.55;65.09;;
63692;Laerm;49838;51.798;10.954;2023-06-10T10:53:32;55.65;38.97;68.45;;
63692;Laerm;49838;51.798;10.954;2023-06-10T10:56:04;55.31;37.91;69.46;;
63692;Laerm;49838;51.798;10.954;2023-06-10T10:58:32;55.08;37.66;66.87;;
63692;Laerm;49838;51.798;10.954;2023-06-10T11:00:59;60.61;37.95;83.66;;
63692;Laerm;49838;51.798;10.954;2023-06-10T11:03:42;63.13;38.46;82.92;;
63692;Laerm;49838;51.798;10.954;2023-06-10T11:06:12;54.34;37.37;68.79;;
63692;Laerm;49838;51.798;10.954;2023-06-10T11:08:46;58.24;37.79;76.26;;
63692;Laerm;49838;51.798;10.954;2023-06-10T11:11:20;53.28;36.30;72.35;;
63692;Laerm;49838;51.798;10.954;2023-06-10T11:13:58;56.02;37.13;70.84;;
63692;Laerm;49838;51.798;10.954;2023-06-10T11:16:27;56.92;36.08;74.41;;
63692;Laerm;49838;51.798;10.954;2023-06-10T11:18:55;55.42;37.10;71.90;;
63692;Laerm;49838;51.798;10.954;2023-06-10T11:21:23;55.80;36.40;68.80;;
63692;Laerm;49838;51.798;10.954;2023-06-10T11:23:51;50.43;35.73;62.98;;
63692;Laerm;49838;51.798;10.954;2023-06-10T11:26:30;54.03;36.01;67.95;;
63692;Laerm;49838;51.798;10.954;2023-06-10T11:29:08;55.47;35.72;69.47;;
63692;Laerm;49838;51.798;10.954;2023-06-10T11:31:49;57.18;36.25;73.72;;
63692;Laerm;49838;51.798;10.954;2023-06-10T11:34:23;59.71;39.02;73.08;;
63692;Laerm;49838;51.798;10.954;2023-06-10T11:36:53;58.30;38.02;76.49;;
63692;Laerm;49838;51.798;10.954;2023-06-10T11:39:21;55.07;39.01;77.67;;
63692;Laerm;49838;51.798;10.954;2023-06-10T11:41:51;57.77;36.61;71.86;;
63692;Laerm;49838;51.798;10.954;2023-06-10T11:44:19;52.64;37.46;66.18;;
63692;Laerm;49838;51.798;10.954;2023-06-10T11:46:48;60.29;36.32;75.17;;
63692;Laerm;49838;51.798;10.954;2023-06-10T11:49:15;58.66;36.73;77.01;;
63692;Laerm;49838;51.798;10.954;2023-06-10T11:51:43;44.19;36.27;65.20;;
63692;Laerm;49838;51.798;10.954;2023-06-10T11:54:15;55.99;37.10;74.49;;
63692;Laerm;49838;51.798;10.954;2023-06-10T11:56:43;57.22;36.50;73.56;;
63692;Laerm;49838;51.798;10.954;2023-06-10T11:59:12;54.44;36.83;70.50;;
63692;Laerm;49838;51.798;10.954;2023-06-10T12:01:42;55.61;36.65;73.29;;
63692;Laerm;49838;51.798;10.954;2023-06-10T12:04:11;57.93;36.59;74.05;;
63692;Laerm;49838;51.798;10.954;2023-06-10T12:06:40;55.78;36.64;73.41;;
63692;Laerm;49838;51.798;10.954;2023-06-10T12:09:17;53.73;36.18;73.68;;
63692;Laerm;49838;51.798;10.954;2023-06-10T12:11:45;55.85;37.84;70.42;;
63692;Laerm;49838;51.798;10.954;2023-06-10T12:14:16;55.11;36.74;69.87;;
63692;Laerm;49838;51.798;10.954;2023-06-10T12:17:04;55.23;35.31;72.97;;
63692;Laerm;49838;51.798;10.954;2023-06-10T12:19:31;52.96;36.67;67.32;;
63692;Laerm;49838;51.798;10.954;2023-06-10T12:22:00;55.66;36.97;70.00;;
63692;Laerm;49838;51.798;10.954;2023-06-10T12:24:31;51.43;37.73;68.73;;
63692;Laerm;49838;51.798;10.954;2023-06-10T12:26:58;65.98;38.37;87.66;;
63692;Laerm;49838;51.798;10.954;2023-06-10T12:29:29;51.17;37.94;71.01;;
63692;Laerm;49838;51.798;10.954;2023-06-10T12:31:59;43.87;36.18;56.35;;
63692;Laerm;49838;51.798;10.954;2023-06-10T12:34:35;60.06;37.22;78.34;;
63692;Laerm;49838;51.798;10.954;2023-06-10T12:37:05;55.43;37.81;68.27;;
63692;Laerm;49838;51.798;10.954;2023-06-10T12:39:33;53.81;37.98;70.48;;
63692;Laerm;49838;51.798;10.954;2023-06-10T12:42:01;53.51;37.30;78.45;;
63692;Laerm;49838;51.798;10.954;2023-06-10T12:44:32;53.35;36.81;71.72;;
63692;Laerm;49838;51.798;10.954;2023-06-10T12:47:00;49.47;37.98;64.12;;
63692;Laerm;49838;51.798;10.954;2023-06-10T12:49:28;57.10;41.43;71.36;;
63692;Laerm;49838;51.798;10.954;2023-06-10T12:51:55;55.81;38.87;69.47;;
63692;Laerm;49838;51.798;10.954;2023-06-10T12:54:23;50.17;39.18;74.89;;
63692;Laerm;49838;51.798;10.954;2023-06-10T12:56:51;49.65;36.12;67.08;;
63692;Laerm;49838;51.798;10.954;2023-06-10T12:59:19;54.77;37.13;69.16;;
63692;Laerm;49838;51.798;10.954;2023-06-10T13:01:51;58.12;37.59;79.32;;
63692;Laerm;49838;51.798;10.954;2023-06-10T13:04:19;50.71;38.97;65.91;;
63692;Laerm;49838;51.798;10.954;2023-06-10T13:06:47;61.47;39.74;84.71;;
63692;Laerm;49838;51.798;10.954;2023-06-10T13:09:15;55.65;36.58;69.67;;
63692;Laerm;49838;51.798;10.954;2023-06-10T13:11:43;55.20;38.07;72.96;;
63692;Laerm;49838;51.798;10.954;2023-06-10T13:14:11;51.16;37.94;68.75;;
63692;Laerm;49838;51.798;10.954;2023-06-10T13:16:38;53.28;37.11;73.12;;
63692;Laerm;49838;51.798;10.954;2023-06-10T13:19:07;54.14;39.06;68.75;;
63692;Laerm;49838;51.798;10.954;2023-06-10T13:21:34;52.17;37.35;65.93;;
63692;Laerm;49838;51.798;10.954;2023-06-10T13:24:03;51.32;35.93;68.50;;
63692;Laerm;49838;51.798;10.954;2023-06-10T13:26:30;56.29;38.79;75.11;;
63692;Laerm;49838;51.798;10.954;2023-06-10T13:28:58;46.82;39.43;61.11;;
63692;Laerm;49838;51.798;10.954;2023-06-10T13:31:25;58.13;37.64;76.42;;
63692;Laerm;49838;51.798;10.954;2023-06-10T13:33:53;51.80;39.06;66.16;;
63692;Laerm;49838;51.798;10.954;2023-06-10T13:36:22;58.37;38.49;73.19;;
63692;Laerm;49838;51.798;10.954;2023-06-10T13:38:49;55.92;38.63;71.56;;
63692;Laerm;49838;51.798;10.954;2023-06-10T13:41:16;50.85;35.14;67.89;;